Time;durP1;ratioP1;P1;durP2;ratioP2;P2;SDS_P1;SDS_P2;PMS_P1;PMS_P2;Temp;Humidity;BMP_temperature;BMP_pressure;BME280_temperature;BME280_humidity;BME280_pressure;Samples;Min_cycle;Max_cycle;Signal;HPM_P1;HPM_P2
2022/09/09 00:01:09;;;;;;;6.53;2.43;;;15.40;99.90;;;;;;5045171;28;20987;-85
2022/09/09 00:03:45;;;;;;;2.23;1.90;;;15.40;99.90;;;;;;5045152;28;20575;-84
2022/09/09 00:06:23;;;;;;;3.10;1.70;;;15.60;99.90;;;;;;5045804;28;20655;-85
2022/09/09 00:09:08;;;;;;;5.73;1.63;;;15.50;99.90;;;;;;5046067;28;20603;-84
2022/09/09 00:11:51;;;;;;;2.77;1.43;;;15.40;99.90;;;;;;5045917;28;21117;-84
2022/09/09 00:14:23;;;;;;;4.17;1.90;;;15.50;99.90;;;;;;5044124;28;20588;-87
2022/09/09 00:16:55;;;;;;;5.63;2.20;;;15.60;99.90;;;;;;5024024;28;20603;-87
2022/09/09 00:19:29;;;;;;;2.77;1.87;;;15.50;99.90;;;;;;5024372;28;21253;-86
2022/09/09 00:22:15;;;;;;;6.50;1.87;;;15.60;99.90;;;;;;5042101;28;20547;-86
2022/09/09 00:25:02;;;;;;;5.77;1.50;;;15.70;99.90;;;;;;5041730;28;20695;-87
2022/09/09 00:27:41;;;;;;;5.00;2.10;;;15.60;99.90;;;;;;5023753;28;20614;-86
2022/09/09 00:30:26;;;;;;;2.90;2.10;;;15.70;99.90;;;;;;5023811;28;20629;-87
2022/09/09 00:33:01;;;;;;;3.60;2.00;;;15.60;99.90;;;;;;5023360;28;20709;-87
2022/09/09 00:35:33;;;;;;;4.93;2.13;;;15.70;99.90;;;;;;5024732;28;20613;-86
2022/09/09 00:38:37;;;;;;;2.80;2.00;;;15.70;99.90;;;;;;5046142;28;20992;-86
2022/09/09 00:41:46;;;;;;;5.67;2.03;;;15.70;99.90;;;;;;4965502;29;20606;-86
2022/09/09 00:44:37;;;;;;;4.47;1.90;;;15.60;99.90;;;;;;5005491;28;21062;-86
2022/09/09 00:47:25;;;;;;;3.23;2.00;;;15.60;99.90;;;;;;5046273;28;20555;-86
2022/09/09 00:50:21;;;;;;;3.23;1.47;;;15.50;99.90;;;;;;5046276;28;20594;-86
2022/09/09 00:53:14;;;;;;;3.53;2.07;;;15.50;99.90;;;;;;5027481;28;20599;-85
2022/09/09 00:55:43;;;;;;;4.47;2.00;;;15.40;99.90;;;;;;5045795;28;20678;-85
2022/09/09 00:58:10;;;;;;;4.20;2.10;;;15.40;99.90;;;;;;5045760;28;20572;-86
2022/09/09 01:01:06;;;;;;;2.03;1.83;;;15.40;99.90;;;;;;5045920;28;20551;-86
2022/09/09 01:03:47;;;;;;;3.53;2.10;;;15.40;99.90;;;;;;5046048;28;20579;-86
2022/09/09 01:06:30;;;;;;;4.57;2.33;;;15.40;99.90;;;;;;5044914;28;20728;-86
2022/09/09 01:09:32;;;;;;;3.20;2.03;;;15.50;99.90;;;;;;5044610;28;20709;-86
2022/09/09 01:12:15;;;;;;;3.13;2.00;;;15.40;99.90;;;;;;5044912;28;20549;-86
2022/09/09 01:14:51;;;;;;;5.53;2.67;;;15.50;99.90;;;;;;5027898;28;20608;-86
2022/09/09 01:17:26;;;;;;;5.50;2.60;;;15.50;99.90;;;;;;5045428;28;20672;-86
2022/09/09 01:20:04;;;;;;;8.00;2.33;;;15.50;99.90;;;;;;5045685;28;20671;-86
2022/09/09 01:22:39;;;;;;;2.63;2.23;;;15.50;99.90;;;;;;5045097;28;20576;-86
2022/09/09 01:25:27;;;;;;;3.60;2.33;;;15.50;99.90;;;;;;5045352;28;21053;-86
2022/09/09 01:27:59;;;;;;;5.77;2.70;;;15.50;99.90;;;;;;5027305;28;20583;-86
2022/09/09 01:30:27;;;;;;;3.47;2.73;;;15.50;99.90;;;;;;5026872;28;20615;-86
2022/09/09 01:32:58;;;;;;;2.80;2.50;;;15.50;99.90;;;;;;5044279;28;20554;-86
2022/09/09 01:35:35;;;;;;;2.23;2.03;;;15.60;99.90;;;;;;5045334;28;20584;-86
2022/09/09 01:38:04;;;;;;;3.00;2.10;;;15.50;99.90;;;;;;5026294;28;20615;-85
2022/09/09 01:40:31;;;;;;;6.47;2.50;;;15.50;99.90;;;;;;5043559;28;20559;-86
2022/09/09 01:42:58;;;;;;;3.57;1.90;;;15.50;99.90;;;;;;5026882;28;20582;-86
2022/09/09 01:45:24;;;;;;;7.77;3.20;;;15.50;99.90;;;;;;5026783;28;21019;-86
2022/09/09 01:47:53;;;;;;;4.20;2.00;;;15.60;99.90;;;;;;5043860;28;20551;-86
2022/09/09 01:50:20;;;;;;;8.30;2.30;;;15.50;99.90;;;;;;5044467;28;20539;-87
2022/09/09 01:52:52;;;;;;;5.23;1.70;;;15.50;99.90;;;;;;5043676;28;20547;-85
2022/09/09 01:55:28;;;;;;;8.77;1.90;;;15.50;99.90;;;;;;5025955;28;20689;-86
2022/09/09 01:58:31;;;;;;;4.23;2.23;;;15.50;99.90;;;;;;5026573;28;20586;-86
2022/09/09 02:01:32;;;;;;;4.07;2.10;;;15.50;99.90;;;;;;5026513;28;20716;-86
2022/09/09 02:04:04;;;;;;;4.83;1.97;;;15.50;99.90;;;;;;5011358;28;20653;-86
2022/09/09 02:06:39;;;;;;;7.70;1.97;;;15.40;99.90;;;;;;5042817;28;20671;-86
2022/09/09 02:09:10;;;;;;;4.53;2.17;;;15.40;99.90;;;;;;5042605;28;20578;-86
2022/09/09 02:11:36;;;;;;;2.33;1.80;;;15.40;99.90;;;;;;5042727;28;20600;-86
2022/09/09 02:14:11;;;;;;;3.00;2.20;;;15.40;99.90;;;;;;5025531;28;20558;-87
2022/09/09 02:16:44;;;;;;;2.80;2.00;;;15.30;99.90;;;;;;5042609;28;20561;-86
2022/09/09 02:19:36;;;;;;;1.97;1.70;;;15.30;99.90;;;;;;5042530;28;20735;-86
2022/09/09 02:22:04;;;;;;;2.87;2.00;;;15.30;99.90;;;;;;5042150;28;20616;-86
2022/09/09 02:24:35;;;;;;;4.70;1.83;;;15.30;99.90;;;;;;5024660;28;20640;-86
2022/09/09 02:27:06;;;;;;;1.60;1.50;;;15.30;99.90;;;;;;5042681;28;20660;-86
2022/09/09 02:29:41;;;;;;;5.13;1.57;;;15.20;99.90;;;;;;5024712;28;20626;-86
2022/09/09 02:32:14;;;;;;;6.57;1.93;;;15.20;99.90;;;;;;5043220;28;20588;-85
2022/09/09 02:34:47;;;;;;;4.20;2.10;;;15.20;99.90;;;;;;5043007;28;20595;-85
2022/09/09 02:37:28;;;;;;;5.00;1.60;;;15.30;99.90;;;;;;5042995;28;20568;-86
2022/09/09 02:39:55;;;;;;;4.10;1.73;;;15.30;99.90;;;;;;5024858;28;20991;-86
2022/09/09 02:42:22;;;;;;;4.63;1.70;;;15.30;99.90;;;;;;5024539;28;20563;-86
2022/09/09 02:44:48;;;;;;;4.40;1.40;;;15.30;99.90;;;;;;5024372;28;20602;-85
2022/09/09 02:47:54;;;;;;;7.60;1.93;;;15.30;99.90;;;;;;5024903;28;20557;-86
2022/09/09 02:50:37;;;;;;;5.57;1.60;;;15.20;99.90;;;;;;5003237;28;20700;-86
2022/09/09 02:53:17;;;;;;;3.83;2.60;;;15.20;99.90;;;;;;5024799;28;20621;-86
2022/09/09 02:56:00;;;;;;;5.03;2.03;;;15.20;99.90;;;;;;5042289;28;20580;-85
2022/09/09 02:58:27;;;;;;;2.73;1.80;;;15.20;99.90;;;;;;5025709;28;20624;-85
2022/09/09 03:00:54;;;;;;;5.50;1.77;;;15.20;99.90;;;;;;5042091;28;20563;-85
2022/09/09 03:03:21;;;;;;;6.20;1.90;;;15.20;99.90;;;;;;5040897;28;20725;-85
2022/09/09 03:05:48;;;;;;;5.80;1.47;;;15.10;99.90;;;;;;5040546;28;20725;-85
2022/09/09 03:08:15;;;;;;;8.17;1.53;;;15.10;99.90;;;;;;5023201;28;20597;-85
2022/09/09 03:10:42;;;;;;;5.10;1.60;;;15.00;99.90;;;;;;5040030;28;20892;-85
2022/09/09 03:13:09;;;;;;;3.33;1.13;;;15.00;99.90;;;;;;5021678;28;20587;-86
2022/09/09 03:15:35;;;;;;;4.33;1.60;;;15.00;99.90;;;;;;5039814;28;20587;-86
2022/09/09 03:18:02;;;;;;;3.87;1.80;;;15.00;99.90;;;;;;5038885;28;21095;-86
2022/09/09 03:20:32;;;;;;;3.17;1.30;;;15.00;99.90;;;;;;5038450;28;20585;-86
2022/09/09 03:23:00;;;;;;;7.23;1.60;;;15.00;99.90;;;;;;5043122;28;20572;-86
2022/09/09 03:25:28;;;;;;;3.33;2.33;;;15.00;99.90;;;;;;5043397;28;20628;-86
2022/09/09 03:27:55;;;;;;;2.77;1.60;;;15.00;99.90;;;;;;5043596;28;20640;-85
2022/09/09 03:30:24;;;;;;;3.37;1.90;;;14.90;99.90;;;;;;5026669;28;20734;-86
2022/09/09 03:32:52;;;;;;;4.33;1.50;;;14.90;99.90;;;;;;5048739;28;20616;-86
2022/09/09 03:35:19;;;;;;;1.90;1.77;;;14.90;99.90;;;;;;5048375;28;20649;-86
2022/09/09 03:37:46;;;;;;;11.77;2.80;;;14.90;99.90;;;;;;5030597;28;20614;-86
2022/09/09 03:40:13;;;;;;;2.77;1.57;;;15.00;99.90;;;;;;5029661;28;20694;-86
2022/09/09 03:42:40;;;;;;;7.40;1.50;;;14.90;99.90;;;;;;5047783;28;20642;-86
2022/09/09 03:45:09;;;;;;;5.43;1.50;;;15.00;99.90;;;;;;5029438;28;20587;-86
2022/09/09 03:47:35;;;;;;;4.10;2.10;;;15.00;99.90;;;;;;5046817;28;20571;-86
2022/09/09 03:50:04;;;;;;;3.07;1.70;;;15.00;99.90;;;;;;5013380;28;20618;-86
2022/09/09 03:52:30;;;;;;;1.93;1.40;;;15.00;99.90;;;;;;5047971;28;20567;-86
2022/09/09 03:54:57;;;;;;;2.80;1.30;;;15.00;99.90;;;;;;5014108;28;20694;-86
2022/09/09 03:57:23;;;;;;;1.50;1.40;;;15.00;99.90;;;;;;5030707;28;20699;-86
2022/09/09 03:59:50;;;;;;;3.07;1.23;;;15.00;99.90;;;;;;5048241;28;20575;-86
2022/09/09 04:02:16;;;;;;;8.10;1.37;;;15.00;99.90;;;;;;5046887;28;20598;-86
2022/09/09 04:04:43;;;;;;;5.30;1.60;;;14.90;99.90;;;;;;5028969;28;20618;-86
2022/09/09 04:07:11;;;;;;;8.30;1.60;;;14.90;99.90;;;;;;5028213;28;20656;-86
2022/09/09 04:09:38;;;;;;;2.40;1.23;;;14.90;99.90;;;;;;5029140;28;20592;-86
2022/09/09 04:12:06;;;;;;;1.30;0.97;;;15.00;99.90;;;;;;5046434;28;20628;-85
2022/09/09 04:14:32;;;;;;;1.90;1.50;;;14.90;99.90;;;;;;5030270;28;20604;-85
2022/09/09 04:17:00;;;;;;;3.33;1.80;;;14.90;99.90;;;;;;5029356;28;20683;-86
2022/09/09 04:19:28;;;;;;;2.93;1.40;;;15.00;99.90;;;;;;5013230;28;20583;-87
2022/09/09 04:21:55;;;;;;;4.50;1.50;;;15.00;99.90;;;;;;5046271;28;20555;-87
2022/09/09 04:24:21;;;;;;;7.97;1.30;;;15.00;99.90;;;;;;5028675;28;20580;-87
2022/09/09 04:26:47;;;;;;;3.00;1.37;;;15.00;99.90;;;;;;5046075;28;21307;-87
2022/09/09 04:29:14;;;;;;;1.83;1.10;;;14.90;99.90;;;;;;5028000;28;20685;-87
2022/09/09 04:31:41;;;;;;;4.53;1.07;;;15.00;99.90;;;;;;5044481;28;20557;-87
2022/09/09 04:34:09;;;;;;;7.53;1.50;;;15.00;99.90;;;;;;5028556;28;20587;-87
2022/09/09 04:36:36;;;;;;;5.23;1.77;;;15.00;99.90;;;;;;5046247;28;20623;-87
2022/09/09 04:39:02;;;;;;;1.73;1.63;;;15.00;99.90;;;;;;5027944;28;20673;-87
2022/09/09 04:41:31;;;;;;;1.90;1.40;;;15.00;99.90;;;;;;5044520;28;20603;-87
2022/09/09 04:43:57;;;;;;;4.20;1.30;;;15.00;99.90;;;;;;5027270;28;20575;-86
2022/09/09 04:46:24;;;;;;;1.80;1.47;;;15.00;99.90;;;;;;5027152;28;20662;-87
2022/09/09 04:48:51;;;;;;;1.93;1.10;;;15.00;99.90;;;;;;5027254;28;20967;-86
2022/09/09 04:51:22;;;;;;;3.93;1.60;;;15.00;99.90;;;;;;5043820;28;20582;-86
2022/09/09 04:53:49;;;;;;;5.00;1.40;;;14.90;99.90;;;;;;5027309;28;20702;-86
2022/09/09 04:56:17;;;;;;;2.57;1.40;;;14.90;99.90;;;;;;5027645;28;20584;-87
2022/09/09 04:58:45;;;;;;;2.00;1.30;;;14.90;99.90;;;;;;5027373;28;20635;-87
2022/09/09 05:01:19;;;;;;;2.03;1.40;;;14.90;99.90;;;;;;5045744;28;20623;-87
2022/09/09 05:03:46;;;;;;;3.53;1.57;;;14.90;99.90;;;;;;5026804;28;20605;-87
2022/09/09 05:06:16;;;;;;;4.60;1.53;;;14.90;99.90;;;;;;5027483;28;21125;-87
2022/09/09 05:08:44;;;;;;;4.93;1.57;;;14.90;99.90;;;;;;5026219;28;20589;-86
2022/09/09 05:11:27;;;;;;;3.83;1.20;;;14.90;99.90;;;;;;5044375;28;20575;-87
2022/09/09 05:13:54;;;;;;;1.63;1.30;;;14.90;99.90;;;;;;5044597;28;20576;-87
2022/09/09 05:16:21;;;;;;;4.73;1.50;;;14.90;99.90;;;;;;5043646;28;20683;-87
2022/09/09 05:18:48;;;;;;;2.40;1.40;;;14.80;99.90;;;;;;5043605;28;20667;-87
2022/09/09 05:21:16;;;;;;;4.07;2.00;;;14.80;99.90;;;;;;5027177;28;20650;-86
2022/09/09 05:23:44;;;;;;;3.73;1.30;;;14.70;99.90;;;;;;5044195;28;20603;-86
2022/09/09 05:26:14;;;;;;;5.43;2.13;;;14.70;99.90;;;;;;5044831;28;20636;-86
2022/09/09 05:28:40;;;;;;;2.50;1.83;;;14.70;99.90;;;;;;5045155;28;20690;-86
2022/09/09 05:31:11;;;;;;;1.37;1.27;;;14.70;99.90;;;;;;5026561;28;20624;-87
2022/09/09 05:33:40;;;;;;;3.07;1.77;;;14.70;99.90;;;;;;5026680;28;20644;-86
2022/09/09 05:36:10;;;;;;;2.90;1.40;;;14.70;99.90;;;;;;5042729;28;20685;-86
2022/09/09 05:38:37;;;;;;;3.27;1.40;;;14.70;99.90;;;;;;5045184;28;21094;-86
2022/09/09 05:41:04;;;;;;;3.23;1.50;;;14.80;99.90;;;;;;5026421;28;20599;-85
2022/09/09 05:43:32;;;;;;;1.83;1.20;;;14.80;99.90;;;;;;5047902;28;20604;-86
2022/09/09 05:46:04;;;;;;;3.03;1.67;;;14.80;99.90;;;;;;5028095;28;20620;-86
2022/09/09 05:48:37;;;;;;;1.70;1.40;;;14.80;99.90;;;;;;5045768;28;20567;-85
2022/09/09 05:51:04;;;;;;;4.00;1.63;;;14.70;99.90;;;;;;5027048;28;20612;-85
2022/09/09 05:53:34;;;;;;;5.30;1.57;;;14.80;99.90;;;;;;5010254;28;20618;-84
2022/09/09 05:56:03;;;;;;;6.50;2.10;;;14.90;99.90;;;;;;5043258;28;20667;-83
2022/09/09 05:58:34;;;;;;;1.80;1.63;;;14.90;99.90;;;;;;5023654;28;20616;-84
2022/09/09 06:01:13;;;;;;;6.17;1.63;;;15.00;99.90;;;;;;5042219;28;20547;-84
2022/09/09 06:03:41;;;;;;;1.70;1.60;;;15.00;99.90;;;;;;5023513;28;20631;-85
2022/09/09 06:06:10;;;;;;;1.73;1.30;;;15.00;99.90;;;;;;5042548;28;20674;-85
2022/09/09 06:08:39;;;;;;;1.30;1.00;;;15.10;99.90;;;;;;5042650;28;20692;-85
2022/09/09 06:11:09;;;;;;;4.00;1.57;;;15.20;99.90;;;;;;5042251;28;20587;-85
2022/09/09 06:13:38;;;;;;;1.50;1.30;;;15.30;99.90;;;;;;5042435;28;20601;-84
2022/09/09 06:16:17;;;;;;;2.73;1.50;;;15.30;99.90;;;;;;5007845;28;20693;-85
2022/09/09 06:18:44;;;;;;;5.23;1.67;;;15.40;99.90;;;;;;5041843;28;20658;-85
2022/09/09 06:21:33;;;;;;;3.37;1.43;;;15.40;99.90;;;;;;5043485;28;20554;-85
2022/09/09 06:24:00;;;;;;;4.90;1.57;;;15.40;99.90;;;;;;5024535;28;20594;-85
2022/09/09 06:26:30;;;;;;;3.03;1.20;;;15.50;99.90;;;;;;5039732;28;21335;-85
2022/09/09 06:28:57;;;;;;;1.70;1.10;;;15.60;99.90;;;;;;5040210;28;20991;-85
2022/09/09 06:31:30;;;;;;;3.30;1.20;;;15.60;99.90;;;;;;5040204;28;20536;-84
2022/09/09 06:33:57;;;;;;;2.93;1.17;;;15.60;99.90;;;;;;5039585;28;21130;-84
2022/09/09 06:36:30;;;;;;;3.40;1.00;;;15.50;99.90;;;;;;5023151;28;20664;-84
2022/09/09 06:38:57;;;;;;;1.37;1.00;;;15.40;99.90;;;;;;5040366;28;20591;-85
2022/09/09 06:41:26;;;;;;;1.30;1.20;;;15.50;99.90;;;;;;5041080;28;20559;-84
2022/09/09 06:43:53;;;;;;;2.40;1.70;;;15.50;99.90;;;;;;5022468;28;20652;-84
2022/09/09 06:46:32;;;;;;;3.20;1.40;;;15.70;99.90;;;;;;5006266;28;20658;-85
2022/09/09 06:48:59;;;;;;;2.70;1.43;;;15.70;99.90;;;;;;5041090;28;20626;-83
2022/09/09 06:51:31;;;;;;;5.33;1.57;;;15.90;99.90;;;;;;5039139;28;21119;-83
2022/09/09 06:54:01;;;;;;;3.77;1.37;;;16.10;99.90;;;;;;5021805;28;20616;-85
2022/09/09 06:56:30;;;;;;;3.30;1.97;;;16.20;99.90;;;;;;5038928;28;20591;-84
2022/09/09 06:58:58;;;;;;;1.83;1.40;;;16.20;99.90;;;;;;5022348;28;20581;-84
2022/09/09 07:01:27;;;;;;;5.00;1.27;;;16.30;99.90;;;;;;5040489;28;20619;-84
2022/09/09 07:03:57;;;;;;;2.77;1.47;;;16.30;99.90;;;;;;5022156;28;20606;-85
2022/09/09 07:06:29;;;;;;;2.83;1.33;;;16.30;99.90;;;;;;5024267;28;20635;-85
2022/09/09 07:09:03;;;;;;;2.67;1.27;;;16.10;99.90;;;;;;5041082;28;20579;-84
2022/09/09 07:11:32;;;;;;;1.50;1.10;;;16.00;99.90;;;;;;5041484;28;21041;-85
2022/09/09 07:14:00;;;;;;;5.97;2.00;;;16.00;99.90;;;;;;5041516;28;21176;-84
2022/09/09 07:16:27;;;;;;;2.90;1.30;;;16.00;99.90;;;;;;5024405;28;20558;-85
2022/09/09 07:18:57;;;;;;;3.73;1.30;;;16.20;99.90;;;;;;5039880;28;20566;-85
2022/09/09 07:21:26;;;;;;;6.50;1.87;;;16.20;99.90;;;;;;5023371;28;20623;-84
2022/09/09 07:23:53;;;;;;;3.10;2.80;;;16.30;99.90;;;;;;5040171;28;20580;-84
2022/09/09 07:26:23;;;;;;;3.37;1.63;;;16.50;99.90;;;;;;5040570;28;20738;-84
2022/09/09 07:28:50;;;;;;;3.70;1.63;;;16.60;99.90;;;;;;5040549;28;21079;-84
2022/09/09 07:31:22;;;;;;;6.13;1.73;;;16.50;99.90;;;;;;5023248;28;20583;-84
2022/09/09 07:33:48;;;;;;;3.57;1.43;;;16.60;99.90;;;;;;5041421;28;20573;-84
2022/09/09 07:36:18;;;;;;;4.00;1.40;;;16.80;99.90;;;;;;5040707;28;20576;-84
2022/09/09 07:38:47;;;;;;;4.67;1.43;;;17.10;99.90;;;;;;5040848;28;20663;-84
2022/09/09 07:41:17;;;;;;;8.03;2.27;;;17.10;99.90;;;;;;5040770;28;20588;-84
2022/09/09 07:43:45;;;;;;;1.97;1.63;;;17.10;99.90;;;;;;5041109;28;20614;-84
2022/09/09 07:46:14;;;;;;;3.90;1.73;;;17.20;99.90;;;;;;5040703;28;20632;-84
2022/09/09 07:48:51;;;;;;;6.30;1.40;;;17.30;99.90;;;;;;5024739;28;20730;-85
2022/09/09 07:51:22;;;;;;;4.60;1.63;;;17.30;99.90;;;;;;5042029;28;20571;-85
2022/09/09 07:53:54;;;;;;;6.43;1.47;;;17.40;99.90;;;;;;5024429;28;20599;-85
2022/09/09 07:56:24;;;;;;;4.17;1.67;;;17.30;99.90;;;;;;5023431;28;20618;-85
2022/09/09 07:58:53;;;;;;;3.53;1.80;;;17.40;99.90;;;;;;5041270;28;20583;-85
2022/09/09 08:01:23;;;;;;;1.70;1.30;;;17.40;99.90;;;;;;5006843;28;20620;-85
2022/09/09 08:03:59;;;;;;;3.73;1.70;;;17.40;99.90;;;;;;5041175;28;20630;-84
2022/09/09 08:06:30;;;;;;;2.67;1.40;;;17.40;99.90;;;;;;5041461;28;20734;-84
2022/09/09 08:08:57;;;;;;;4.40;1.60;;;17.20;99.90;;;;;;5040388;28;20581;-84
2022/09/09 08:11:26;;;;;;;1.60;1.50;;;17.00;99.90;;;;;;5041337;28;20594;-84
2022/09/09 08:13:53;;;;;;;5.20;1.73;;;17.00;99.90;;;;;;5042720;28;20604;-84
2022/09/09 08:16:29;;;;;;;5.00;1.80;;;16.90;99.90;;;;;;5025559;28;20600;-83
2022/09/09 08:18:56;;;;;;;5.20;1.73;;;16.90;99.90;;;;;;5045765;28;20567;-85
2022/09/09 08:21:26;;;;;;;4.90;1.70;;;16.90;99.90;;;;;;5027850;28;20572;-85
2022/09/09 08:23:54;;;;;;;7.43;1.53;;;17.00;99.90;;;;;;5045435;28;20563;-85
2022/09/09 08:26:27;;;;;;;7.83;2.70;;;17.20;99.90;;;;;;5044588;28;21252;-85
2022/09/09 08:28:56;;;;;;;2.00;1.77;;;17.30;99.90;;;;;;5026963;28;20659;-85
2022/09/09 08:31:27;;;;;;;2.80;1.93;;;17.20;99.90;;;;;;5025958;28;20619;-85
2022/09/09 08:33:55;;;;;;;4.93;2.40;;;17.10;99.90;;;;;;5026157;28;20616;-85
2022/09/09 08:36:25;;;;;;;2.60;1.43;;;17.00;99.90;;;;;;5026688;28;20681;-84
2022/09/09 08:38:56;;;;;;;6.00;1.87;;;17.20;99.90;;;;;;5027482;28;20591;-85
2022/09/09 08:41:58;;;;;;;5.37;1.73;;;17.30;99.90;;;;;;5044351;28;20580;-85
2022/09/09 08:44:33;;;;;;;2.70;1.63;;;17.50;99.90;;;;;;5042424;28;20583;-84
2022/09/09 08:47:12;;;;;;;7.17;1.90;;;17.50;99.90;;;;;;5024274;28;20682;-84
2022/09/09 08:49:53;;;;;;;10.33;1.97;;;17.80;99.90;;;;;;5042259;28;21098;-84
2022/09/09 08:52:27;;;;;;;4.90;1.97;;;17.80;99.90;;;;;;5042287;28;20579;-83
2022/09/09 08:54:58;;;;;;;2.13;1.77;;;17.80;99.90;;;;;;5023168;28;20595;-84
2022/09/09 08:57:27;;;;;;;5.47;2.00;;;17.90;99.90;;;;;;5032976;28;20572;-87
2022/09/09 08:59:56;;;;;;;4.30;2.10;;;17.70;99.90;;;;;;5041671;28;20691;-83
2022/09/09 09:02:49;;;;;;;6.03;2.50;;;17.90;99.90;;;;;;5009086;28;20636;-84
2022/09/09 09:05:27;;;;;;;2.00;1.20;;;18.20;99.90;;;;;;5044092;28;20627;-85
2022/09/09 09:08:24;;;;;;;4.23;1.80;;;18.10;99.90;;;;;;5028111;28;21220;-85
2022/09/09 09:10:53;;;;;;;10.40;2.53;;;18.20;99.90;;;;;;5026521;28;20615;-83
2022/09/09 09:13:43;;;;;;;6.00;1.90;;;18.20;99.90;;;;;;5044582;28;20720;-85
2022/09/09 09:16:40;;;;;;;7.40;1.73;;;18.00;99.90;;;;;;5044907;28;20588;-84
2022/09/09 09:19:15;;;;;;;2.83;2.03;;;17.90;99.90;;;;;;5022588;28;20605;-85
2022/09/09 09:21:44;;;;;;;8.43;2.30;;;17.70;99.90;;;;;;5045165;28;20535;-85
2022/09/09 09:24:24;;;;;;;8.13;2.10;;;17.60;99.90;;;;;;5044619;28;20584;-84
2022/09/09 09:26:52;;;;;;;3.90;1.63;;;17.50;99.90;;;;;;5042929;28;20604;-83
2022/09/09 09:29:21;;;;;;;4.00;2.00;;;17.20;99.90;;;;;;5041736;28;20656;-83
2022/09/09 09:31:56;;;;;;;8.10;2.33;;;17.10;99.90;;;;;;5041989;28;20594;-83
2022/09/09 09:34:25;;;;;;;5.93;3.13;;;17.10;99.90;;;;;;5043020;28;20702;-83
2022/09/09 09:36:57;;;;;;;9.23;3.10;;;17.10;99.90;;;;;;5008840;28;20623;-84
2022/09/09 09:39:26;;;;;;;3.67;1.90;;;17.10;99.90;;;;;;5025422;28;21060;-84
2022/09/09 09:41:54;;;;;;;3.33;1.97;;;17.10;99.90;;;;;;5043164;28;20580;-85
2022/09/09 09:44:23;;;;;;;4.90;2.30;;;17.10;99.90;;;;;;5026707;28;20697;-85
2022/09/09 09:46:50;;;;;;;5.93;2.53;;;17.20;99.90;;;;;;5043480;28;20651;-85
2022/09/09 09:49:17;;;;;;;5.70;2.00;;;17.40;99.90;;;;;;5044457;28;20572;-85
2022/09/09 09:51:44;;;;;;;6.50;2.40;;;17.40;99.90;;;;;;5043831;28;20907;-84
2022/09/09 09:54:16;;;;;;;6.57;2.23;;;17.20;99.90;;;;;;5044677;28;20636;-84
2022/09/09 09:56:44;;;;;;;5.20;1.90;;;17.20;99.90;;;;;;5044727;28;20719;-84
2022/09/09 09:59:22;;;;;;;7.10;2.80;;;17.50;99.90;;;;;;5009213;28;21187;-83
2022/09/09 10:01:48;;;;;;;7.77;2.27;;;17.70;99.90;;;;;;5042575;28;20569;-84
2022/09/09 10:04:19;;;;;;;3.40;2.00;;;17.70;99.90;;;;;;5025225;28;20674;-84
2022/09/09 10:06:50;;;;;;;9.40;3.07;;;18.10;99.90;;;;;;5025680;28;20686;-85
2022/09/09 10:09:27;;;;;;;2.30;1.93;;;18.40;99.90;;;;;;5024901;28;20639;-84
2022/09/09 10:12:19;;;;;;;3.57;2.33;;;18.30;99.90;;;;;;5042836;28;20575;-84
2022/09/09 10:18:51;;;;;;;6.27;1.97;;;18.50;99.90;;;;;;5042877;28;20549;-84
2022/09/09 10:21:30;;;;;;;4.10;1.70;;;18.60;99.90;;;;;;5043411;28;20679;-85
2022/09/09 10:24:31;;;;;;;2.43;1.60;;;18.30;99.90;;;;;;5026983;28;21181;-85
2022/09/09 10:27:12;;;;;;;3.70;1.50;;;18.70;99.90;;;;;;5042749;28;20670;-85
2022/09/09 10:29:57;;;;;;;3.10;1.60;;;18.80;99.90;;;;;;5042962;28;20714;-85
2022/09/09 10:32:48;;;;;;;8.23;2.37;;;19.00;99.90;;;;;;5026108;28;20620;-85
2022/09/09 10:35:48;;;;;;;7.50;2.27;;;19.00;99.90;;;;;;5043700;28;20668;-84
2022/09/09 10:38:41;;;;;;;7.10;2.17;;;19.20;99.90;;;;;;5027866;28;20612;-86
2022/09/09 10:41:24;;;;;;;5.80;2.20;;;19.10;99.90;;;;;;5041729;28;20616;-84
2022/09/09 10:44:34;;;;;;;4.23;1.60;;;19.40;99.90;;;;;;5043872;28;20901;-86
2022/09/09 10:47:09;;;;;;;4.70;1.93;;;19.50;99.90;;;;;;4947689;29;20659;-86
2022/09/09 10:50:23;;;;;;;6.03;1.60;;;19.60;99.90;;;;;;4962856;29;20653;-86
2022/09/09 10:53:25;;;;;;;4.43;1.60;;;19.90;99.90;;;;;;4999332;28;20632;-86
2022/09/09 10:55:58;;;;;;;4.00;1.27;;;20.00;99.90;;;;;;5042632;28;21130;-86
2022/09/09 10:58:30;;;;;;;2.57;1.50;;;20.80;99.90;;;;;;5042780;28;20586;-86
2022/09/09 11:01:03;;;;;;;1.80;1.23;;;20.90;99.90;;;;;;5043616;28;20572;-85
2022/09/09 11:03:33;;;;;;;3.30;1.40;;;20.90;99.90;;;;;;5026232;28;20569;-86
2022/09/09 11:06:13;;;;;;;6.40;1.20;;;20.60;99.90;;;;;;5046778;28;20651;-85
2022/09/09 11:08:40;;;;;;;3.40;1.57;;;20.20;99.90;;;;;;5045168;28;20709;-85
2022/09/09 11:11:32;;;;;;;5.23;2.00;;;20.20;99.90;;;;;;5024839;28;20635;-86
2022/09/09 11:14:03;;;;;;;5.37;1.73;;;20.10;99.90;;;;;;5042764;28;20616;-86
2022/09/09 11:16:50;;;;;;;2.83;1.30;;;19.90;99.90;;;;;;5043296;28;20584;-86
2022/09/09 11:19:49;;;;;;;4.50;1.70;;;20.00;99.90;;;;;;5043388;28;20611;-86
2022/09/09 11:22:33;;;;;;;5.60;1.90;;;19.80;99.90;;;;;;5039559;28;20632;-86
2022/09/09 11:25:48;;;;;;;;;;;;;;;;;;;;;
2022/09/09 11:33:09;;;;;;;3.50;1.70;;;19.90;99.90;;;;;;5013363;28;20598;-86
2022/09/09 11:36:44;;;;;;;;;;;;;;;;;;;;;
2022/09/09 11:40:30;;;;;;;5.50;1.57;;;20.10;99.90;;;;;;4993450;28;20628;-86
2022/09/09 11:43:58;;;;;;;8.13;1.80;;;20.20;99.90;;;;;;4979523;28;20612;-86
2022/09/09 11:47:41;;;;;;;2.57;1.70;;;20.10;99.90;;;;;;4888069;29;20674;-85
2022/09/09 11:50:45;;;;;;;3.30;1.30;;;20.30;99.90;;;;;;4964559;28;20699;-85
2022/09/09 11:54:29;;;;;;;3.17;1.50;;;20.20;99.90;;;;;;4941974;29;20623;-87
2022/09/09 11:57:32;;;;;;;4.10;1.57;;;19.50;99.90;;;;;;4877686;29;20631;-87
2022/09/09 12:00:44;;;;;;;5.00;1.47;;;19.00;99.90;;;;;;4861829;29;20614;-85
2022/09/09 12:07:19;;;;;;;6.27;1.67;;;18.70;99.90;;;;;;5023307;28;20644;-87
2022/09/09 12:09:51;;;;;;;2.27;1.40;;;18.70;99.90;;;;;;5022134;28;20675;-86
2022/09/09 12:12:28;;;;;;;4.47;1.47;;;18.80;99.90;;;;;;5050344;28;20628;-86
2022/09/09 12:15:07;;;;;;;7.27;1.53;;;18.80;99.90;;;;;;5049361;28;20551;-86
2022/09/09 12:17:44;;;;;;;8.80;2.17;;;19.00;99.90;;;;;;5032255;28;20631;-86
2022/09/09 12:20:19;;;;;;;1.53;1.20;;;19.20;99.90;;;;;;5031032;28;20668;-86
2022/09/09 12:23:36;;;;;;;2.27;1.33;;;18.80;99.90;;;;;;5048755;28;20571;-86
2022/09/09 12:26:20;;;;;;;3.57;1.13;;;18.80;99.90;;;;;;4999681;28;20620;-87
2022/09/09 12:28:57;;;;;;;4.23;1.80;;;18.90;99.90;;;;;;5049350;28;20656;-88
2022/09/09 12:31:34;;;;;;;5.73;1.43;;;19.00;99.90;;;;;;5044073;28;20740;-87
2022/09/09 12:34:27;;;;;;;2.77;1.03;;;19.10;99.90;;;;;;5029827;28;21064;-88
2022/09/09 12:37:00;;;;;;;4.23;1.37;;;19.00;99.90;;;;;;5042188;28;20636;-87
2022/09/09 12:39:33;;;;;;;2.40;0.97;;;19.00;99.90;;;;;;5045097;28;20667;-87
2022/09/09 12:42:03;;;;;;;4.20;1.10;;;19.00;99.90;;;;;;5044546;28;20579;-86
2022/09/09 12:44:32;;;;;;;9.43;2.03;;;18.90;99.90;;;;;;5046286;28;20642;-86
2022/09/09 12:47:02;;;;;;;3.20;0.90;;;18.20;99.90;;;;;;5050311;28;20667;-84
2022/09/09 12:49:38;;;;;;;16.70;1.80;;;16.60;99.90;;;;;;5031705;28;20620;-86
2022/09/09 12:52:24;;;;;;;1.73;1.20;;;16.10;99.90;;;;;;5047707;28;20649;-85
2022/09/09 12:54:51;;;;;;;4.73;1.13;;;16.00;99.90;;;;;;5029380;28;20590;-86
2022/09/09 12:57:18;;;;;;;1.23;0.73;;;15.90;99.90;;;;;;5046553;28;20559;-86
2022/09/09 12:59:45;;;;;;;9.20;1.30;;;15.90;99.90;;;;;;5028653;28;20616;-86
2022/09/09 13:02:23;;;;;;;1.27;1.17;;;15.90;99.90;;;;;;5029859;28;20555;-86
2022/09/09 13:04:50;;;;;;;7.43;1.17;;;15.90;99.90;;;;;;5044436;28;20642;-87
2022/09/09 13:07:18;;;;;;;4.53;0.97;;;16.10;99.90;;;;;;5012524;28;20739;-85
2022/09/09 13:09:46;;;;;;;6.07;1.40;;;16.40;99.90;;;;;;5045589;28;20575;-86
2022/09/09 13:12:25;;;;;;;3.13;1.60;;;16.70;99.90;;;;;;5011649;28;20681;-85
2022/09/09 13:14:55;;;;;;;6.50;1.20;;;17.10;99.90;;;;;;5031452;28;20615;-85
2022/09/09 13:17:30;;;;;;;4.97;1.00;;;17.40;99.90;;;;;;5012357;28;20624;-85
2022/09/09 13:19:57;;;;;;;2.33;0.90;;;17.40;99.90;;;;;;5028965;28;20913;-86
2022/09/09 13:22:32;;;;;;;1.97;0.90;;;17.80;99.90;;;;;;5046273;28;20699;-88
2022/09/09 13:25:12;;;;;;;1.73;0.90;;;18.00;99.90;;;;;;5047543;28;20935;-85
2022/09/09 13:28:04;;;;;;;3.30;0.90;;;19.10;99.90;;;;;;5043930;28;20670;-86
2022/09/09 13:30:43;;;;;;;5.37;0.90;;;20.30;99.90;;;;;;5044172;28;20648;-87
2022/09/09 13:33:12;;;;;;;3.20;1.30;;;21.50;99.90;;;;;;5013720;28;20691;-86
2022/09/09 13:35:59;;;;;;;2.63;1.30;;;21.50;99.90;;;;;;5042971;28;20569;-86
2022/09/09 13:38:27;;;;;;;3.97;1.40;;;21.60;99.90;;;;;;5025239;28;20635;-83
2022/09/09 13:41:01;;;;;;;3.57;1.47;;;22.00;99.90;;;;;;5025872;28;20695;-87
2022/09/09 13:43:30;;;;;;;6.73;2.23;;;22.20;99.90;;;;;;5044365;28;20615;-86